sensor_id;sensor_type;location;lat;lon;timestamp;temperature;humidity
31725;DHT22;18306;40.960;14.836;2023-06-14T00:00:28;22.70;99.90
31725;DHT22;18306;40.960;14.836;2023-06-14T00:02:55;22.70;99.90
31725;DHT22;18306;40.960;14.836;2023-06-14T00:05:23;22.60;99.90
31725;DHT22;18306;40.960;14.836;2023-06-14T00:07:51;22.60;99.90
31725;DHT22;18306;40.960;14.836;2023-06-14T00:10:20;22.60;99.90
31725;DHT22;18306;40.960;14.836;2023-06-14T00:12:47;22.70;99.90
31725;DHT22;18306;40.960;14.836;2023-06-14T00:15:17;22.60;99.90
31725;DHT22;18306;40.960;14.836;2023-06-14T00:17:44;22.50;99.90
31725;DHT22;18306;40.960;14.836;2023-06-14T00:20:14;22.60;99.90
31725;DHT22;18306;40.960;14.836;2023-06-14T00:22:41;22.70;99.90
31725;DHT22;18306;40.960;14.836;2023-06-14T00:25:11;22.70;99.90
31725;DHT22;18306;40.960;14.836;2023-06-14T00:27:38;22.60;99.90
31725;DHT22;18306;40.960;14.836;2023-06-14T00:30:05;22.40;99.90
31725;DHT22;18306;40.960;14.836;2023-06-14T00:32:36;22.20;99.90
31725;DHT22;18306;40.960;14.836;2023-06-14T00:35:04;22.00;99.90
31725;DHT22;18306;40.960;14.836;2023-06-14T00:37:36;22.00;99.90
31725;DHT22;18306;40.960;14.836;2023-06-14T00:40:03;22.00;99.90
31725;DHT22;18306;40.960;14.836;2023-06-14T00:42:31;22.10;99.90
31725;DHT22;18306;40.960;14.836;2023-06-14T00:45:00;22.10;99.90
31725;DHT22;18306;40.960;14.836;2023-06-14T00:47:27;22.10;99.90
31725;DHT22;18306;40.960;14.836;2023-06-14T00:49:55;22.20;99.90
31725;DHT22;18306;40.960;14.836;2023-06-14T00:52:24;22.30;99.90
31725;DHT22;18306;40.960;14.836;2023-06-14T00:54:52;22.30;99.90
31725;DHT22;18306;40.960;14.836;2023-06-14T00:57:19;22.20;99.90
31725;DHT22;18306;40.960;14.836;2023-06-14T00:59:48;22.30;99.90
31725;DHT22;18306;40.960;14.836;2023-06-14T01:02:17;22.30;99.90
31725;DHT22;18306;40.960;14.836;2023-06-14T01:04:48;22.30;99.90
31725;DHT22;18306;40.960;14.836;2023-06-14T01:07:34;22.20;99.90
31725;DHT22;18306;40.960;14.836;2023-06-14T01:10:21;22.30;99.90
31725;DHT22;18306;40.960;14.836;2023-06-14T01:13:07;22.30;99.90
31725;DHT22;18306;40.960;14.836;2023-06-14T01:15:36;22.30;99.90
31725;DHT22;18306;40.960;14.836;2023-06-14T01:18:04;22.10;99.90
31725;DHT22;18306;40.960;14.836;2023-06-14T01:20:33;22.20;99.90
31725;DHT22;18306;40.960;14.836;2023-06-14T01:23:04;22.00;99.90
31725;DHT22;18306;40.960;14.836;2023-06-14T01:25:34;22.00;99.90
31725;DHT22;18306;40.960;14.836;2023-06-14T01:28:04;22.10;99.90
31725;DHT22;18306;40.960;14.836;2023-06-14T01:30:44;22.20;99.90
31725;DHT22;18306;40.960;14.836;2023-06-14T01:33:17;22.30;99.90
31725;DHT22;18306;40.960;14.836;2023-06-14T01:35:49;22.30;99.90
31725;DHT22;18306;40.960;14.836;2023-06-14T01:38:22;22.40;99.90
31725;DHT22;18306;40.960;14.836;2023-06-14T01:40:54;22.50;99.90
31725;DHT22;18306;40.960;14.836;2023-06-14T01:43:22;22.50;99.90
31725;DHT22;18306;40.960;14.836;2023-06-14T01:45:53;22.40;99.90
31725;DHT22;18306;40.960;14.836;2023-06-14T01:48:22;22.40;99.90
31725;DHT22;18306;40.960;14.836;2023-06-14T01:50:50;22.40;99.90
31725;DHT22;18306;40.960;14.836;2023-06-14T01:53:17;22.20;99.90
31725;DHT22;18306;40.960;14.836;2023-06-14T01:55:47;22.20;99.90
31725;DHT22;18306;40.960;14.836;2023-06-14T01:58:15;22.20;99.90
31725;DHT22;18306;40.960;14.836;2023-06-14T02:00:45;22.30;99.90
31725;DHT22;18306;40.960;14.836;2023-06-14T02:03:14;22.40;99.90
31725;DHT22;18306;40.960;14.836;2023-06-14T02:05:42;22.40;99.90
31725;DHT22;18306;40.960;14.836;2023-06-14T02:08:09;22.40;99.90
31725;DHT22;18306;40.960;14.836;2023-06-14T02:10:38;22.50;99.90
31725;DHT22;18306;40.960;14.836;2023-06-14T02:13:05;22.40;99.90
31725;DHT22;18306;40.960;14.836;2023-06-14T02:15:32;22.50;99.90
31725;DHT22;18306;40.960;14.836;2023-06-14T02:18:02;22.50;99.90
31725;DHT22;18306;40.960;14.836;2023-06-14T02:20:33;22.50;99.90
31725;DHT22;18306;40.960;14.836;2023-06-14T02:23:00;22.40;99.90
31725;DHT22;18306;40.960;14.836;2023-06-14T02:25:27;22.30;99.90
31725;DHT22;18306;40.960;14.836;2023-06-14T02:27:55;22.20;99.90
31725;DHT22;18306;40.960;14.836;2023-06-14T02:30:22;22.10;99.90
31725;DHT22;18306;40.960;14.836;2023-06-14T02:32:52;22.00;99.90
31725;DHT22;18306;40.960;14.836;2023-06-14T02:35:20;22.10;99.90
31725;DHT22;18306;40.960;14.836;2023-06-14T02:37:49;22.10;99.90
31725;DHT22;18306;40.960;14.836;2023-06-14T02:40:16;21.00;99.90
31725;DHT22;18306;40.960;14.836;2023-06-14T02:42:43;22.20;99.90
31725;DHT22;18306;40.960;14.836;2023-06-14T02:45:10;22.30;99.90
31725;DHT22;18306;40.960;14.836;2023-06-14T02:47:37;22.30;99.90
31725;DHT22;18306;40.960;14.836;2023-06-14T02:50:05;22.40;99.90
31725;DHT22;18306;40.960;14.836;2023-06-14T02:52:33;22.40;99.90
31725;DHT22;18306;40.960;14.836;2023-06-14T02:55:00;22.40;99.90
31725;DHT22;18306;40.960;14.836;2023-06-14T02:57:27;22.20;99.90
31725;DHT22;18306;40.960;14.836;2023-06-14T02:59:54;22.30;99.90
31725;DHT22;18306;40.960;14.836;2023-06-14T03:02:22;22.40;99.90
31725;DHT22;18306;40.960;14.836;2023-06-14T03:04:49;22.40;99.90
31725;DHT22;18306;40.960;14.836;2023-06-14T03:07:20;22.30;99.90
31725;DHT22;18306;40.960;14.836;2023-06-14T03:09:49;22.30;99.90
31725;DHT22;18306;40.960;14.836;2023-06-14T03:12:17;22.20;99.90
31725;DHT22;18306;40.960;14.836;2023-06-14T03:14:44;22.20;99.90
31725;DHT22;18306;40.960;14.836;2023-06-14T03:17:14;22.30;99.90
31725;DHT22;18306;40.960;14.836;2023-06-14T03:19:44;22.30;99.90
31725;DHT22;18306;40.960;14.836;2023-06-14T03:22:11;22.40;99.90
31725;DHT22;18306;40.960;14.836;2023-06-14T03:24:40;22.50;99.90
31725;DHT22;18306;40.960;14.836;2023-06-14T03:27:13;22.40;99.90
31725;DHT22;18306;40.960;14.836;2023-06-14T03:29:44;22.40;99.90
31725;DHT22;18306;40.960;14.836;2023-06-14T03:32:11;22.50;99.90
31725;DHT22;18306;40.960;14.836;2023-06-14T03:34:41;22.50;99.90
31725;DHT22;18306;40.960;14.836;2023-06-14T03:37:14;22.20;99.90
31725;DHT22;18306;40.960;14.836;2023-06-14T03:39:41;22.00;99.90
31725;DHT22;18306;40.960;14.836;2023-06-14T03:42:15;22.10;99.90
31725;DHT22;18306;40.960;14.836;2023-06-14T03:44:44;22.10;99.90
31725;DHT22;18306;40.960;14.836;2023-06-14T03:47:11;22.10;99.90
31725;DHT22;18306;40.960;14.836;2023-06-14T03:49:41;22.20;99.90
31725;DHT22;18306;40.960;14.836;2023-06-14T03:52:09;22.20;99.90
31725;DHT22;18306;40.960;14.836;2023-06-14T03:54:38;22.20;99.90
31725;DHT22;18306;40.960;14.836;2023-06-14T03:57:06;22.10;99.90
31725;DHT22;18306;40.960;14.836;2023-06-14T03:59:33;22.10;99.90
31725;DHT22;18306;40.960;14.836;2023-06-14T04:02:00;22.20;99.90
31725;DHT22;18306;40.960;14.836;2023-06-14T04:04:28;22.30;99.90
31725;DHT22;18306;40.960;14.836;2023-06-14T04:06:56;22.40;99.90
31725;DHT22;18306;40.960;14.836;2023-06-14T04:09:26;22.60;99.90
31725;DHT22;18306;40.960;14.836;2023-06-14T04:11:53;22.50;99.90
31725;DHT22;18306;40.960;14.836;2023-06-14T04:14:21;22.60;99.90
31725;DHT22;18306;40.960;14.836;2023-06-14T04:16:49;22.70;99.90
31725;DHT22;18306;40.960;14.836;2023-06-14T04:19:18;22.80;99.90
31725;DHT22;18306;40.960;14.836;2023-06-14T04:21:46;22.80;99.90
31725;DHT22;18306;40.960;14.836;2023-06-14T04:24:14;22.80;99.90
31725;DHT22;18306;40.960;14.836;2023-06-14T04:26:50;22.90;99.90
31725;DHT22;18306;40.960;14.836;2023-06-14T04:29:23;22.90;99.90
31725;DHT22;18306;40.960;14.836;2023-06-14T04:32:05;23.00;99.90
31725;DHT22;18306;40.960;14.836;2023-06-14T04:34:42;23.10;99.90
31725;DHT22;18306;40.960;14.836;2023-06-14T04:37:26;23.20;99.90
31725;DHT22;18306;40.960;14.836;2023-06-14T04:39:58;23.20;99.90
31725;DHT22;18306;40.960;14.836;2023-06-14T04:42:26;23.10;99.90
31725;DHT22;18306;40.960;14.836;2023-06-14T04:44:58;23.00;99.90
31725;DHT22;18306;40.960;14.836;2023-06-14T04:47:28;23.00;99.90
31725;DHT22;18306;40.960;14.836;2023-06-14T04:49:58;23.00;99.90
31725;DHT22;18306;40.960;14.836;2023-06-14T04:52:30;23.10;99.90
31725;DHT22;18306;40.960;14.836;2023-06-14T04:54:59;23.20;99.90
31725;DHT22;18306;40.960;14.836;2023-06-14T04:57:28;23.40;99.90
31725;DHT22;18306;40.960;14.836;2023-06-14T04:59:59;23.40;99.90
31725;DHT22;18306;40.960;14.836;2023-06-14T05:02:29;23.50;99.90
31725;DHT22;18306;40.960;14.836;2023-06-14T05:04:59;23.50;99.90
31725;DHT22;18306;40.960;14.836;2023-06-14T05:07:33;23.50;99.90
31725;DHT22;18306;40.960;14.836;2023-06-14T05:10:03;23.60;99.90
31725;DHT22;18306;40.960;14.836;2023-06-14T05:12:33;23.80;99.90
31725;DHT22;18306;40.960;14.836;2023-06-14T05:15:02;23.80;99.90
31725;DHT22;18306;40.960;14.836;2023-06-14T05:17:32;23.90;99.90
31725;DHT22;18306;40.960;14.836;2023-06-14T05:19:59;24.00;99.90
31725;DHT22;18306;40.960;14.836;2023-06-14T05:22:26;23.90;99.90
31725;DHT22;18306;40.960;14.836;2023-06-14T05:24:53;24.00;99.90
31725;DHT22;18306;40.960;14.836;2023-06-14T05:27:20;23.90;99.90
31725;DHT22;18306;40.960;14.836;2023-06-14T05:29:47;24.20;99.90
31725;DHT22;18306;40.960;14.836;2023-06-14T05:32:15;24.30;99.90
31725;DHT22;18306;40.960;14.836;2023-06-14T05:34:43;24.30;99.90
31725;DHT22;18306;40.960;14.836;2023-06-14T05:37:10;24.60;99.90
31725;DHT22;18306;40.960;14.836;2023-06-14T05:39:40;24.70;99.90
31725;DHT22;18306;40.960;14.836;2023-06-14T05:42:07;25.00;99.90
31725;DHT22;18306;40.960;14.836;2023-06-14T05:44:34;25.10;99.90
31725;DHT22;18306;40.960;14.836;2023-06-14T05:47:01;25.20;99.90
31725;DHT22;18306;40.960;14.836;2023-06-14T05:49:31;25.40;99.90
31725;DHT22;18306;40.960;14.836;2023-06-14T05:51:59;25.90;99.90
31725;DHT22;18306;40.960;14.836;2023-06-14T05:54:25;26.50;99.90
31725;DHT22;18306;40.960;14.836;2023-06-14T05:56:55;27.00;99.90
31725;DHT22;18306;40.960;14.836;2023-06-14T05:59:28;27.30;99.90
31725;DHT22;18306;40.960;14.836;2023-06-14T06:01:55;27.70;99.90
31725;DHT22;18306;40.960;14.836;2023-06-14T06:04:23;28.10;99.90
31725;DHT22;18306;40.960;14.836;2023-06-14T06:06:50;28.20;99.90
31725;DHT22;18306;40.960;14.836;2023-06-14T06:09:17;28.70;99.90
31725;DHT22;18306;40.960;14.836;2023-06-14T06:11:44;28.90;99.90
31725;DHT22;18306;40.960;14.836;2023-06-14T06:14:11;28.70;99.90
31725;DHT22;18306;40.960;14.836;2023-06-14T06:16:38;28.40;99.90
31725;DHT22;18306;40.960;14.836;2023-06-14T06:19:05;28.60;99.90
31725;DHT22;18306;40.960;14.836;2023-06-14T06:21:32;29.10;99.90
31725;DHT22;18306;40.960;14.836;2023-06-14T06:23:59;29.40;99.90
31725;DHT22;18306;40.960;14.836;2023-06-14T06:26:30;29.80;99.90
31725;DHT22;18306;40.960;14.836;2023-06-14T06:28:58;29.80;99.90
31725;DHT22;18306;40.960;14.836;2023-06-14T06:31:25;29.90;99.90
31725;DHT22;18306;40.960;14.836;2023-06-14T06:33:55;29.90;99.90
31725;DHT22;18306;40.960;14.836;2023-06-14T06:36:22;29.80;99.90
31725;DHT22;18306;40.960;14.836;2023-06-14T06:38:50;29.40;99.90
31725;DHT22;18306;40.960;14.836;2023-06-14T06:41:17;29.00;99.90
31725;DHT22;18306;40.960;14.836;2023-06-14T06:43:44;28.70;99.90
31725;DHT22;18306;40.960;14.836;2023-06-14T06:46:11;28.20;99.90
31725;DHT22;18306;40.960;14.836;2023-06-14T06:48:39;27.90;99.90
31725;DHT22;18306;40.960;14.836;2023-06-14T06:51:06;27.70;99.90
31725;DHT22;18306;40.960;14.836;2023-06-14T06:53:33;27.60;99.90
31725;DHT22;18306;40.960;14.836;2023-06-14T06:56:01;27.50;99.90
31725;DHT22;18306;40.960;14.836;2023-06-14T06:58:28;27.60;99.90
31725;DHT22;18306;40.960;14.836;2023-06-14T07:00:55;27.60;99.90
31725;DHT22;18306;40.960;14.836;2023-06-14T07:03:22;27.70;99.90
31725;DHT22;18306;40.960;14.836;2023-06-14T07:05:49;27.90;99.90
31725;DHT22;18306;40.960;14.836;2023-06-14T07:08:19;28.00;99.90
31725;DHT22;18306;40.960;14.836;2023-06-14T07:10:46;28.00;99.90
31725;DHT22;18306;40.960;14.836;2023-06-14T07:13:13;27.90;99.90
31725;DHT22;18306;40.960;14.836;2023-06-14T07:15:40;28.00;99.90
31725;DHT22;18306;40.960;14.836;2023-06-14T07:18:07;28.10;99.90
31725;DHT22;18306;40.960;14.836;2023-06-14T07:20:35;28.40;99.90
31725;DHT22;18306;40.960;14.836;2023-06-14T07:23:05;28.70;99.90
31725;DHT22;18306;40.960;14.836;2023-06-14T07:25:32;28.70;99.90
31725;DHT22;18306;40.960;14.836;2023-06-14T07:27:59;28.50;99.90
31725;DHT22;18306;40.960;14.836;2023-06-14T07:30:29;28.60;99.90
31725;DHT22;18306;40.960;14.836;2023-06-14T07:33:00;28.60;99.90
31725;DHT22;18306;40.960;14.836;2023-06-14T07:35:27;28.60;99.90
31725;DHT22;18306;40.960;14.836;2023-06-14T07:37:54;28.60;99.90
31725;DHT22;18306;40.960;14.836;2023-06-14T07:40:21;28.60;99.90
31725;DHT22;18306;40.960;14.836;2023-06-14T07:42:48;28.60;99.90
31725;DHT22;18306;40.960;14.836;2023-06-14T07:45:17;28.00;99.90
31725;DHT22;18306;40.960;14.836;2023-06-14T07:47:44;28.70;99.90
31725;DHT22;18306;40.960;14.836;2023-06-14T07:50:12;28.70;99.90
31725;DHT22;18306;40.960;14.836;2023-06-14T07:52:40;28.80;99.90
31725;DHT22;18306;40.960;14.836;2023-06-14T07:55:07;29.20;99.90
31725;DHT22;18306;40.960;14.836;2023-06-14T07:57:36;29.60;99.90
31725;DHT22;18306;40.960;14.836;2023-06-14T08:00:04;29.80;99.90
31725;DHT22;18306;40.960;14.836;2023-06-14T08:02:38;30.50;99.90
31725;DHT22;18306;40.960;14.836;2023-06-14T08:05:06;31.10;99.50
31725;DHT22;18306;40.960;14.836;2023-06-14T08:07:33;31.50;99.30
31725;DHT22;18306;40.960;14.836;2023-06-14T08:10:00;31.90;98.00
31725;DHT22;18306;40.960;14.836;2023-06-14T08:12:27;32.20;97.70
31725;DHT22;18306;40.960;14.836;2023-06-14T08:14:55;32.50;96.40
31725;DHT22;18306;40.960;14.836;2023-06-14T08:17:23;32.50;96.00
31725;DHT22;18306;40.960;14.836;2023-06-14T08:19:53;32.30;96.30
31725;DHT22;18306;40.960;14.836;2023-06-14T08:22:24;32.00;96.50
31725;DHT22;18306;40.960;14.836;2023-06-14T08:24:55;31.70;97.50
31725;DHT22;18306;40.960;14.836;2023-06-14T08:27:35;31.50;96.90
31725;DHT22;18306;40.960;14.836;2023-06-14T08:30:04;31.20;97.60
31725;DHT22;18306;40.960;14.836;2023-06-14T08:32:31;31.00;98.20
31725;DHT22;18306;40.960;14.836;2023-06-14T08:34:58;30.90;98.20
31725;DHT22;18306;40.960;14.836;2023-06-14T08:37:25;30.80;98.10
31725;DHT22;18306;40.960;14.836;2023-06-14T08:39:53;30.50;96.90
31725;DHT22;18306;40.960;14.836;2023-06-14T08:42:21;30.20;96.90
31725;DHT22;18306;40.960;14.836;2023-06-14T08:44:50;30.10;97.60
31725;DHT22;18306;40.960;14.836;2023-06-14T08:47:17;29.80;98.00
31725;DHT22;18306;40.960;14.836;2023-06-14T08:49:46;29.40;98.40
31725;DHT22;18306;40.960;14.836;2023-06-14T08:52:20;29.10;98.90
31725;DHT22;18306;40.960;14.836;2023-06-14T08:54:47;29.10;99.30
31725;DHT22;18306;40.960;14.836;2023-06-14T08:57:15;28.90;99.40
31725;DHT22;18306;40.960;14.836;2023-06-14T08:59:49;29.00;99.30
31725;DHT22;18306;40.960;14.836;2023-06-14T09:02:25;29.20;99.20
31725;DHT22;18306;40.960;14.836;2023-06-14T09:04:52;29.40;99.40
31725;DHT22;18306;40.960;14.836;2023-06-14T09:07:23;29.60;99.40
31725;DHT22;18306;40.960;14.836;2023-06-14T09:10:09;29.70;99.60
31725;DHT22;18306;40.960;14.836;2023-06-14T09:12:43;29.90;99.70
31725;DHT22;18306;40.960;14.836;2023-06-14T09:15:10;29.90;99.40
31725;DHT22;18306;40.960;14.836;2023-06-14T09:17:38;29.90;99.40
31725;DHT22;18306;40.960;14.836;2023-06-14T09:20:07;30.10;99.30
31725;DHT22;18306;40.960;14.836;2023-06-14T09:22:40;30.10;98.70
31725;DHT22;18306;40.960;14.836;2023-06-14T09:25:08;29.80;98.90
31725;DHT22;18306;40.960;14.836;2023-06-14T09:27:35;29.90;99.30
31725;DHT22;18306;40.960;14.836;2023-06-14T09:30:08;29.90;99.50
31725;DHT22;18306;40.960;14.836;2023-06-14T09:32:42;29.80;98.90
31725;DHT22;18306;40.960;14.836;2023-06-14T09:35:09;29.60;98.50
31725;DHT22;18306;40.960;14.836;2023-06-14T09:37:36;29.50;99.30
31725;DHT22;18306;40.960;14.836;2023-06-14T09:40:07;29.70;99.60
31725;DHT22;18306;40.960;14.836;2023-06-14T09:42:35;29.70;99.50
31725;DHT22;18306;40.960;14.836;2023-06-14T09:45:06;29.80;99.30
31725;DHT22;18306;40.960;14.836;2023-06-14T09:47:37;29.70;99.30
31725;DHT22;18306;40.960;14.836;2023-06-14T09:50:06;29.70;99.70
31725;DHT22;18306;40.960;14.836;2023-06-14T09:52:34;29.70;99.50
31725;DHT22;18306;40.960;14.836;2023-06-14T09:55:12;29.70;99.90
31725;DHT22;18306;40.960;14.836;2023-06-14T09:57:42;29.60;99.90
31725;DHT22;18306;40.960;14.836;2023-06-14T10:00:13;29.70;99.90
31725;DHT22;18306;40.960;14.836;2023-06-14T10:02:43;30.00;99.90
31725;DHT22;18306;40.960;14.836;2023-06-14T10:05:15;30.10;99.80
31725;DHT22;18306;40.960;14.836;2023-06-14T10:10:15;30.10;99.60
31725;DHT22;18306;40.960;14.836;2023-06-14T10:12:42;29.90;99.90
31725;DHT22;18306;40.960;14.836;2023-06-14T10:15:10;29.50;99.90
31725;DHT22;18306;40.960;14.836;2023-06-14T10:17:52;29.10;99.90
31725;DHT22;18306;40.960;14.836;2023-06-14T10:20:38;28.90;99.90
31725;DHT22;18306;40.960;14.836;2023-06-14T10:23:15;28.40;99.90
31725;DHT22;18306;40.960;14.836;2023-06-14T10:25:44;28.00;99.90
31725;DHT22;18306;40.960;14.836;2023-06-14T10:28:16;27.90;99.90
31725;DHT22;18306;40.960;14.836;2023-06-14T10:31:04;27.50;99.90
31725;DHT22;18306;40.960;14.836;2023-06-14T10:33:55;27.30;99.90
31725;DHT22;18306;40.960;14.836;2023-06-14T10:36:28;27.20;99.90
31725;DHT22;18306;40.960;14.836;2023-06-14T10:41:36;27.30;99.90
31725;DHT22;18306;40.960;14.836;2023-06-14T10:46:41;27.20;99.90
31725;DHT22;18306;40.960;14.836;2023-06-14T10:49:17;27.30;99.90
31725;DHT22;18306;40.960;14.836;2023-06-14T10:51:51;27.40;99.90
31725;DHT22;18306;40.960;14.836;2023-06-14T10:54:22;27.20;99.90
31725;DHT22;18306;40.960;14.836;2023-06-14T10:56:51;27.20;99.90
31725;DHT22;18306;40.960;14.836;2023-06-14T10:59:20;27.30;99.90
31725;DHT22;18306;40.960;14.836;2023-06-14T11:04:50;27.00;99.90
31725;DHT22;18306;40.960;14.836;2023-06-14T11:07:37;27.20;99.90
31725;DHT22;18306;40.960;14.836;2023-06-14T11:10:14;27.20;99.90
31725;DHT22;18306;40.960;14.836;2023-06-14T11:12:48;27.30;99.90
31725;DHT22;18306;40.960;14.836;2023-06-14T11:15:16;27.20;99.90
31725;DHT22;18306;40.960;14.836;2023-06-14T11:17:51;27.00;99.90
31725;DHT22;18306;40.960;14.836;2023-06-14T11:20:20;26.90;99.90
31725;DHT22;18306;40.960;14.836;2023-06-14T11:22:47;26.90;99.90
31725;DHT22;18306;40.960;14.836;2023-06-14T11:25:14;26.80;99.90
31725;DHT22;18306;40.960;14.836;2023-06-14T11:27:42;26.70;99.90
31725;DHT22;18306;40.960;14.836;2023-06-14T11:30:10;26.60;99.90
31725;DHT22;18306;40.960;14.836;2023-06-14T11:32:38;26.80;99.90
31725;DHT22;18306;40.960;14.836;2023-06-14T11:35:06;26.70;99.90
31725;DHT22;18306;40.960;14.836;2023-06-14T11:37:33;26.80;99.90
31725;DHT22;18306;40.960;14.836;2023-06-14T11:40:01;26.90;99.90
31725;DHT22;18306;40.960;14.836;2023-06-14T11:42:35;26.70;99.90
31725;DHT22;18306;40.960;14.836;2023-06-14T11:45:03;26.60;99.90
31725;DHT22;18306;40.960;14.836;2023-06-14T11:47:38;26.80;99.90
31725;DHT22;18306;40.960;14.836;2023-06-14T11:50:08;26.90;99.90
31725;DHT22;18306;40.960;14.836;2023-06-14T11:52:37;26.50;99.90
31725;DHT22;18306;40.960;14.836;2023-06-14T11:55:05;26.60;99.90
31725;DHT22;18306;40.960;14.836;2023-06-14T11:57:35;26.50;99.90
31725;DHT22;18306;40.960;14.836;2023-06-14T12:00:04;26.60;99.90
31725;DHT22;18306;40.960;14.836;2023-06-14T12:02:41;26.60;99.90
31725;DHT22;18306;40.960;14.836;2023-06-14T12:05:09;26.70;99.90
31725;DHT22;18306;40.960;14.836;2023-06-14T12:07:39;26.70;99.90
31725;DHT22;18306;40.960;14.836;2023-06-14T12:10:09;26.80;99.90
31725;DHT22;18306;40.960;14.836;2023-06-14T12:12:38;26.80;99.90
31725;DHT22;18306;40.960;14.836;2023-06-14T12:15:07;26.80;99.90
31725;DHT22;18306;40.960;14.836;2023-06-14T12:17:35;26.80;99.90
31725;DHT22;18306;40.960;14.836;2023-06-14T12:20:09;27.00;99.90
31725;DHT22;18306;40.960;14.836;2023-06-14T12:23:14;27.10;99.90
31725;DHT22;18306;40.960;14.836;2023-06-14T12:25:42;27.20;99.90
31725;DHT22;18306;40.960;14.836;2023-06-14T12:28:11;27.40;99.90
31725;DHT22;18306;40.960;14.836;2023-06-14T12:30:38;27.60;99.90
31725;DHT22;18306;40.960;14.836;2023-06-14T12:33:06;27.90;99.90
31725;DHT22;18306;40.960;14.836;2023-06-14T12:35:34;28.20;99.90
31725;DHT22;18306;40.960;14.836;2023-06-14T12:38:01;28.50;99.90
31725;DHT22;18306;40.960;14.836;2023-06-14T12:40:30;28.80;99.90
31725;DHT22;18306;40.960;14.836;2023-06-14T12:43:03;28.90;99.90
31725;DHT22;18306;40.960;14.836;2023-06-14T12:45:34;28.90;99.90
31725;DHT22;18306;40.960;14.836;2023-06-14T12:48:01;29.00;99.90
31725;DHT22;18306;40.960;14.836;2023-06-14T12:50:28;29.10;99.90
31725;DHT22;18306;40.960;14.836;2023-06-14T12:52:57;29.20;99.90
31725;DHT22;18306;40.960;14.836;2023-06-14T12:55:26;29.20;99.90
31725;DHT22;18306;40.960;14.836;2023-06-14T12:57:53;29.20;99.90
31725;DHT22;18306;40.960;14.836;2023-06-14T13:00:21;29.00;99.90
31725;DHT22;18306;40.960;14.836;2023-06-14T13:02:49;28.80;99.90
31725;DHT22;18306;40.960;14.836;2023-06-14T13:05:18;28.60;99.90
31725;DHT22;18306;40.960;14.836;2023-06-14T13:07:46;28.60;99.90
31725;DHT22;18306;40.960;14.836;2023-06-14T13:10:13;28.50;99.90
31725;DHT22;18306;40.960;14.836;2023-06-14T13:12:41;28.60;99.90
31725;DHT22;18306;40.960;14.836;2023-06-14T13:15:09;28.60;99.90
31725;DHT22;18306;40.960;14.836;2023-06-14T13:17:39;28.40;99.90
31725;DHT22;18306;40.960;14.836;2023-06-14T13:20:07;28.40;99.90
31725;DHT22;18306;40.960;14.836;2023-06-14T13:22:38;28.30;99.90
31725;DHT22;18306;40.960;14.836;2023-06-14T13:25:09;28.30;99.90
31725;DHT22;18306;40.960;14.836;2023-06-14T13:27:36;28.20;99.90
31725;DHT22;18306;40.960;14.836;2023-06-14T13:30:06;28.20;99.90
31725;DHT22;18306;40.960;14.836;2023-06-14T13:32:33;28.30;99.90
31725;DHT22;18306;40.960;14.836;2023-06-14T13:35:05;28.40;99.90
31725;DHT22;18306;40.960;14.836;2023-06-14T13:37:33;28.40;99.90
31725;DHT22;18306;40.960;14.836;2023-06-14T13:40:03;28.20;99.90
31725;DHT22;18306;40.960;14.836;2023-06-14T13:42:33;28.00;99.90
31725;DHT22;18306;40.960;14.836;2023-06-14T13:45:00;28.20;99.90
31725;DHT22;18306;40.960;14.836;2023-06-14T13:47:27;28.20;99.90
31725;DHT22;18306;40.960;14.836;2023-06-14T13:49:54;28.30;99.90
31725;DHT22;18306;40.960;14.836;2023-06-14T13:52:21;28.50;99.90
31725;DHT22;18306;40.960;14.836;2023-06-14T13:54:48;28.70;99.90
31725;DHT22;18306;40.960;14.836;2023-06-14T13:57:16;28.80;99.90
31725;DHT22;18306;40.960;14.836;2023-06-14T13:59:43;28.80;99.90
31725;DHT22;18306;40.960;14.836;2023-06-14T14:02:14;28.80;99.90
31725;DHT22;18306;40.960;14.836;2023-06-14T14:04:41;28.70;99.90
31725;DHT22;18306;40.960;14.836;2023-06-14T14:07:08;28.70;99.90
31725;DHT22;18306;40.960;14.836;2023-06-14T14:09:35;28.60;99.90
31725;DHT22;18306;40.960;14.836;2023-06-14T14:12:04;28.60;99.90
31725;DHT22;18306;40.960;14.836;2023-06-14T14:14:32;28.40;99.90
31725;DHT22;18306;40.960;14.836;2023-06-14T14:16:59;28.30;99.90
31725;DHT22;18306;40.960;14.836;2023-06-14T14:19:26;28.30;99.90
31725;DHT22;18306;40.960;14.836;2023-06-14T14:21:56;28.30;99.90
31725;DHT22;18306;40.960;14.836;2023-06-14T14:24:24;28.30;99.90
31725;DHT22;18306;40.960;14.836;2023-06-14T14:26:51;28.20;99.90
31725;DHT22;18306;40.960;14.836;2023-06-14T14:29:20;28.10;99.90
31725;DHT22;18306;40.960;14.836;2023-06-14T14:31:47;28.10;99.90
31725;DHT22;18306;40.960;14.836;2023-06-14T14:34:17;28.20;99.90
31725;DHT22;18306;40.960;14.836;2023-06-14T14:36:44;28.30;99.90
31725;DHT22;18306;40.960;14.836;2023-06-14T14:39:11;28.40;99.90
31725;DHT22;18306;40.960;14.836;2023-06-14T14:41:38;28.50;99.90
31725;DHT22;18306;40.960;14.836;2023-06-14T14:44:06;28.60;99.90
31725;DHT22;18306;40.960;14.836;2023-06-14T14:46:33;28.40;99.90
31725;DHT22;18306;40.960;14.836;2023-06-14T14:49:01;28.20;99.90
31725;DHT22;18306;40.960;14.836;2023-06-14T14:51:28;28.20;99.90
31725;DHT22;18306;40.960;14.836;2023-06-14T14:53:55;28.20;99.90
31725;DHT22;18306;40.960;14.836;2023-06-14T14:56:23;28.20;99.90
31725;DHT22;18306;40.960;14.836;2023-06-14T14:58:56;28.30;99.90
31725;DHT22;18306;40.960;14.836;2023-06-14T15:01:24;28.30;99.90
31725;DHT22;18306;40.960;14.836;2023-06-14T15:03:51;28.30;99.90
31725;DHT22;18306;40.960;14.836;2023-06-14T15:06:18;28.30;99.90
31725;DHT22;18306;40.960;14.836;2023-06-14T15:08:45;28.10;99.90
31725;DHT22;18306;40.960;14.836;2023-06-14T15:11:12;27.90;99.90
31725;DHT22;18306;40.960;14.836;2023-06-14T15:13:39;28.00;99.90
31725;DHT22;18306;40.960;14.836;2023-06-14T15:16:06;28.10;99.90
31725;DHT22;18306;40.960;14.836;2023-06-14T15:18:33;28.30;99.90
31725;DHT22;18306;40.960;14.836;2023-06-14T15:21:01;28.40;99.90
31725;DHT22;18306;40.960;14.836;2023-06-14T15:23:28;28.30;99.90
31725;DHT22;18306;40.960;14.836;2023-06-14T15:25:55;28.10;99.90
31725;DHT22;18306;40.960;14.836;2023-06-14T15:28:22;28.00;99.90
31725;DHT22;18306;40.960;14.836;2023-06-14T15:30:51;28.00;99.90
31725;DHT22;18306;40.960;14.836;2023-06-14T15:33:18;28.10;99.90
31725;DHT22;18306;40.960;14.836;2023-06-14T15:35:47;28.40;99.90
31725;DHT22;18306;40.960;14.836;2023-06-14T15:38:14;28.40;99.90